Time;durP1;ratioP1;P1;durP2;ratioP2;P2;SDS_P1;SDS_P2;PMS_P1;PMS_P2;Temp;Humidity;BMP_temperature;BMP_pressure;BME280_temperature;BME280_humidity;BME280_pressure;Samples;Min_cycle;Max_cycle;Signal;HPM_P1;HPM_P2
2023/08/29 00:00:03;;;;;;;0.00;0.00;;;14.70;82.30;;;;;;4991970;28;20041;-72
2023/08/29 00:02:31;;;;;;;0.00;0.00;;;14.60;82.70;;;;;;5012110;28;20041;-72
2023/08/29 00:04:58;;;;;;;0.00;0.00;;;14.60;82.50;;;;;;5010696;28;20115;-72
2023/08/29 00:07:23;;;;;;;0.00;0.00;;;14.60;82.50;;;;;;5013709;28;20409;-72
2023/08/29 00:09:49;;;;;;;0.00;0.00;;;14.60;82.50;;;;;;5010657;28;20044;-72
2023/08/29 00:12:14;;;;;;;0.00;0.00;;;14.50;82.70;;;;;;5011904;28;20049;-72
2023/08/29 00:14:40;;;;;;;0.00;0.00;;;14.50;83.10;;;;;;5016536;28;20116;-72
2023/08/29 00:17:09;;;;;;;0.00;0.00;;;14.50;83.20;;;;;;5011759;28;20069;-72
2023/08/29 00:19:35;;;;;;;0.00;0.00;;;14.50;83.50;;;;;;5030289;28;20058;-72
2023/08/29 00:22:00;;;;;;;0.00;0.00;;;14.40;84.00;;;;;;5015889;28;20108;-72
2023/08/29 00:24:28;;;;;;;0.00;0.00;;;14.30;83.90;;;;;;5026329;28;20044;-72
2023/08/29 00:26:53;;;;;;;0.00;0.00;;;14.30;83.60;;;;;;5024069;28;20041;-73
2023/08/29 00:29:28;;;;;;;0.00;0.00;;;14.30;83.40;;;;;;5028605;28;20085;-73
2023/08/29 00:31:54;;;;;;;0.00;0.00;;;14.30;84.00;;;;;;5002617;28;20076;-73
2023/08/29 00:34:19;;;;;;;0.00;0.00;;;14.30;84.10;;;;;;5016116;28;20073;-73
2023/08/29 00:36:45;;;;;;;0.00;0.00;;;14.20;84.20;;;;;;5027935;28;20049;-73
2023/08/29 00:39:10;;;;;;;0.00;0.00;;;14.20;84.10;;;;;;5017943;28;20053;-72
2023/08/29 00:41:36;;;;;;;0.00;0.00;;;14.20;84.00;;;;;;5011003;28;20041;-72
2023/08/29 00:44:01;;;;;;;0.00;0.00;;;14.20;83.80;;;;;;5026761;28;20574;-72
2023/08/29 00:46:27;;;;;;;0.00;0.00;;;14.20;83.70;;;;;;5021855;28;20140;-72
2023/08/29 00:48:55;;;;;;;0.00;0.00;;;14.20;83.60;;;;;;5008613;28;20042;-72
2023/08/29 00:51:20;;;;;;;0.00;0.00;;;14.20;83.60;;;;;;5013110;28;20042;-72
2023/08/29 00:53:47;;;;;;;0.00;0.00;;;14.20;83.40;;;;;;5029187;28;20042;-72
2023/08/29 00:56:17;;;;;;;0.00;0.00;;;14.30;83.30;;;;;;5029075;28;20042;-72
2023/08/29 00:58:43;;;;;;;0.00;0.00;;;14.30;83.30;;;;;;5027172;28;20045;-72
2023/08/29 01:01:09;;;;;;;0.00;0.00;;;14.20;83.60;;;;;;5005085;28;20422;-72
2023/08/29 01:03:35;;;;;;;0.00;0.00;;;14.20;83.60;;;;;;5012697;28;20042;-72
2023/08/29 01:06:01;;;;;;;0.00;0.00;;;14.20;83.80;;;;;;4996666;28;20077;-72
2023/08/29 01:08:27;;;;;;;0.00;0.00;;;14.30;83.70;;;;;;4996644;28;20073;-72
2023/08/29 01:11:14;;;;;;;0.00;0.00;;;14.30;83.80;;;;;;5004995;28;20049;-72
2023/08/29 01:13:52;;;;;;;0.00;0.00;;;14.30;83.70;;;;;;5007297;28;20050;-72
2023/08/29 01:16:23;;;;;;;0.00;0.00;;;14.30;83.70;;;;;;4995029;28;20053;-72
2023/08/29 01:18:51;;;;;;;0.10;0.10;;;14.30;83.70;;;;;;5027189;28;20055;-72
2023/08/29 01:21:28;;;;;;;0.00;0.00;;;14.30;83.80;;;;;;5013935;28;20577;-72
2023/08/29 01:24:02;;;;;;;0.00;0.00;;;14.30;83.70;;;;;;5009520;28;20044;-72
2023/08/29 01:26:29;;;;;;;0.00;0.00;;;14.30;83.50;;;;;;5009016;28;20053;-72
2023/08/29 01:28:56;;;;;;;0.00;0.00;;;14.30;83.40;;;;;;4991809;28;20077;-72
2023/08/29 01:31:22;;;;;;;0.00;0.00;;;14.30;83.40;;;;;;5006188;28;20383;-72
2023/08/29 01:33:47;;;;;;;0.00;0.00;;;14.30;83.60;;;;;;5008765;28;20052;-72
2023/08/29 01:36:13;;;;;;;0.00;0.00;;;14.30;83.50;;;;;;5021902;28;20049;-72
2023/08/29 01:38:39;;;;;;;0.00;0.00;;;14.30;83.30;;;;;;5017843;28;20084;-72
2023/08/29 01:41:04;;;;;;;0.00;0.00;;;14.20;83.30;;;;;;5028326;28;20073;-72
2023/08/29 01:43:30;;;;;;;0.00;0.00;;;14.20;83.20;;;;;;5009642;28;20042;-72
2023/08/29 01:45:56;;;;;;;0.00;0.00;;;14.20;83.50;;;;;;5020781;28;20045;-72
2023/08/29 01:48:22;;;;;;;0.00;0.00;;;14.20;83.50;;;;;;4999707;28;20041;-72
2023/08/29 01:50:48;;;;;;;0.00;0.00;;;14.20;83.50;;;;;;5017381;28;20228;-72
2023/08/29 01:53:14;;;;;;;0.00;0.00;;;14.20;83.80;;;;;;4993930;28;20053;-72
2023/08/29 01:55:40;;;;;;;0.00;0.00;;;14.10;83.80;;;;;;5028524;28;20565;-72
2023/08/29 01:58:07;;;;;;;0.00;0.00;;;14.10;83.70;;;;;;5028640;28;20441;-72
2023/08/29 02:00:34;;;;;;;0.00;0.00;;;14.10;83.60;;;;;;5028243;28;20053;-72
2023/08/29 02:02:59;;;;;;;0.00;0.00;;;14.10;83.60;;;;;;5025836;28;20033;-72
2023/08/29 02:05:25;;;;;;;0.00;0.00;;;14.10;83.60;;;;;;5018509;28;20627;-72
2023/08/29 02:07:51;;;;;;;0.00;0.00;;;14.10;83.50;;;;;;5016883;28;20038;-72
2023/08/29 02:10:17;;;;;;;0.00;0.00;;;14.10;83.40;;;;;;4995323;28;20054;-72
2023/08/29 02:12:42;;;;;;;0.00;0.00;;;14.10;83.40;;;;;;5012107;28;20091;-72
2023/08/29 02:15:09;;;;;;;0.00;0.00;;;14.10;83.50;;;;;;5010035;28;20050;-72
2023/08/29 02:17:36;;;;;;;0.00;0.00;;;14.10;83.50;;;;;;5008765;28;20044;-72
2023/08/29 02:20:04;;;;;;;0.00;0.00;;;14.10;83.50;;;;;;5012789;28;20050;-72
2023/08/29 02:22:30;;;;;;;0.00;0.00;;;14.10;83.60;;;;;;5013283;28;20050;-72
2023/08/29 02:24:56;;;;;;;0.00;0.00;;;14.10;83.50;;;;;;5011488;28;20137;-72
2023/08/29 02:27:22;;;;;;;0.00;0.00;;;14.10;83.40;;;;;;5009695;28;20408;-72
2023/08/29 02:29:47;;;;;;;0.00;0.00;;;14.00;83.30;;;;;;5019568;28;20120;-72
2023/08/29 02:32:14;;;;;;;0.00;0.00;;;14.10;83.40;;;;;;5021959;28;20473;-72
2023/08/29 02:34:39;;;;;;;0.00;0.00;;;14.10;83.40;;;;;;5028897;28;20046;-72
2023/08/29 02:37:05;;;;;;;0.00;0.00;;;14.00;83.30;;;;;;5011058;28;20103;-72
2023/08/29 02:39:31;;;;;;;0.00;0.00;;;14.00;83.10;;;;;;5026762;28;20052;-72
2023/08/29 02:41:57;;;;;;;0.00;0.00;;;13.90;83.00;;;;;;5021190;28;20060;-72
2023/08/29 02:44:23;;;;;;;0.10;0.10;;;13.90;83.00;;;;;;5025253;28;20045;-72
2023/08/29 02:46:48;;;;;;;0.00;0.00;;;13.80;82.90;;;;;;5014211;28;20607;-72
2023/08/29 02:49:14;;;;;;;0.00;0.00;;;13.80;82.80;;;;;;5012809;28;20046;-72
2023/08/29 02:51:40;;;;;;;0.00;0.00;;;13.80;82.80;;;;;;5013469;28;20514;-72
2023/08/29 02:54:05;;;;;;;0.00;0.00;;;13.70;82.70;;;;;;5021550;28;20049;-72
2023/08/29 02:56:31;;;;;;;0.00;0.00;;;13.70;82.80;;;;;;4999742;28;20495;-72
2023/08/29 02:58:57;;;;;;;0.00;0.00;;;13.70;82.90;;;;;;5011641;28;20042;-73
2023/08/29 03:01:22;;;;;;;0.00;0.00;;;13.70;82.90;;;;;;5023381;28;20042;-72
2023/08/29 03:03:48;;;;;;;0.00;0.00;;;13.60;83.00;;;;;;5011973;28;20050;-72
2023/08/29 03:06:14;;;;;;;0.00;0.00;;;13.60;83.10;;;;;;5021108;28;20072;-72
2023/08/29 03:09:21;;;;;;;0.00;0.00;;;13.60;83.10;;;;;;5028813;28;20124;-72
2023/08/29 03:11:50;;;;;;;0.00;0.00;;;13.60;83.00;;;;;;5014243;28;20403;-72
2023/08/29 03:14:33;;;;;;;0.00;0.00;;;13.70;83.20;;;;;;5020309;28;20103;-72
2023/08/29 03:17:03;;;;;;;0.00;0.00;;;13.60;83.20;;;;;;4994396;28;20054;-72
2023/08/29 03:19:29;;;;;;;0.00;0.00;;;13.60;83.20;;;;;;4989690;28;20077;-72
2023/08/29 03:21:57;;;;;;;0.00;0.00;;;13.60;83.30;;;;;;5001568;28;20046;-72
2023/08/29 03:24:24;;;;;;;0.00;0.00;;;13.60;83.50;;;;;;4976800;28;20053;-72
2023/08/29 03:27:03;;;;;;;0.00;0.00;;;13.60;83.50;;;;;;5006503;28;20100;-72
2023/08/29 03:29:29;;;;;;;0.00;0.00;;;13.60;83.70;;;;;;4998583;28;20057;-72
2023/08/29 03:31:55;;;;;;;0.00;0.00;;;13.60;83.60;;;;;;4992463;28;20046;-72
2023/08/29 03:34:20;;;;;;;0.00;0.00;;;13.60;83.60;;;;;;4999343;28;20157;-72
2023/08/29 03:36:46;;;;;;;0.00;0.00;;;13.60;83.50;;;;;;5004734;28;20054;-72
2023/08/29 03:39:12;;;;;;;0.00;0.00;;;13.60;83.50;;;;;;5000460;28;20046;-72
2023/08/29 03:41:39;;;;;;;0.00;0.00;;;13.60;83.40;;;;;;4991600;28;20038;-72
2023/08/29 03:44:23;;;;;;;0.00;0.00;;;13.50;83.40;;;;;;5007126;28;20169;-72
2023/08/29 03:46:56;;;;;;;;;;;13.50;83.40;;;;;;4993018;28;20049;-72
2023/08/29 03:49:22;;;;;;;0.00;0.00;;;13.60;83.50;;;;;;5004561;28;19925;-72
2023/08/29 03:51:48;;;;;;;0.00;0.00;;;13.50;83.50;;;;;;5008950;28;20045;-72
2023/08/29 03:54:14;;;;;;;0.00;0.00;;;13.50;83.50;;;;;;5002238;28;20069;-72
2023/08/29 03:56:40;;;;;;;0.00;0.00;;;13.60;83.50;;;;;;5007807;28;20121;-72
2023/08/29 03:59:07;;;;;;;0.00;0.00;;;13.60;83.60;;;;;;5000650;28;20156;-72
2023/08/29 04:01:36;;;;;;;0.00;0.00;;;13.60;83.70;;;;;;4991790;28;20042;-72
2023/08/29 04:04:17;;;;;;;0.00;0.00;;;13.60;83.80;;;;;;5004298;28;20584;-72
2023/08/29 04:07:04;;;;;;;0.00;0.00;;;13.60;84.00;;;;;;4991865;28;20038;-72
2023/08/29 04:09:31;;;;;;;0.00;0.00;;;13.60;84.20;;;;;;4999302;28;20050;-72
2023/08/29 04:11:57;;;;;;;0.00;0.00;;;13.60;84.20;;;;;;5010392;28;20042;-72
2023/08/29 04:14:23;;;;;;;0.00;0.00;;;13.60;84.30;;;;;;4997624;28;20058;-72
2023/08/29 04:16:51;;;;;;;0.00;0.00;;;13.70;84.50;;;;;;5007217;28;20450;-72
2023/08/29 04:19:17;;;;;;;0.00;0.00;;;13.80;84.40;;;;;;5008941;28;20053;-72
2023/08/29 04:21:45;;;;;;;0.00;0.00;;;13.70;84.30;;;;;;5010005;28;20073;-72
2023/08/29 04:24:12;;;;;;;0.00;0.00;;;13.80;84.20;;;;;;5006865;28;20062;-72
2023/08/29 04:26:38;;;;;;;0.00;0.00;;;13.70;84.60;;;;;;4991846;28;20057;-72
2023/08/29 04:29:05;;;;;;;0.00;0.00;;;13.70;84.80;;;;;;5007283;28;20054;-72
2023/08/29 04:31:31;;;;;;;0.00;0.00;;;13.70;84.80;;;;;;5009112;28;20054;-72
2023/08/29 04:33:59;;;;;;;0.00;0.00;;;13.70;84.80;;;;;;5006787;28;20471;-72
2023/08/29 04:36:25;;;;;;;0.00;0.00;;;13.80;84.80;;;;;;5000566;28;20629;-72
2023/08/29 04:38:51;;;;;;;0.00;0.00;;;13.80;84.80;;;;;;4998984;28;20049;-72
2023/08/29 04:41:16;;;;;;;0.00;0.00;;;13.80;84.70;;;;;;5006797;28;20402;-72
2023/08/29 04:43:42;;;;;;;0.00;0.00;;;13.80;84.70;;;;;;5009427;28;20060;-72
2023/08/29 04:46:09;;;;;;;0.00;0.00;;;13.90;84.60;;;;;;5000988;28;20052;-72
2023/08/29 04:48:36;;;;;;;0.00;0.00;;;13.90;84.50;;;;;;4996215;28;20081;-72
2023/08/29 04:51:02;;;;;;;0.00;0.00;;;13.90;84.50;;;;;;5006301;28;20454;-72
2023/08/29 04:53:28;;;;;;;0.00;0.00;;;13.90;84.50;;;;;;5003904;28;20499;-72
2023/08/29 04:56:01;;;;;;;0.00;0.00;;;13.90;84.40;;;;;;4999341;28;20049;-72
2023/08/29 04:58:28;;;;;;;0.00;0.00;;;13.90;84.40;;;;;;5003047;28;20053;-72
2023/08/29 05:00:54;;;;;;;0.00;0.00;;;13.90;84.70;;;;;;4989668;28;20065;-72
2023/08/29 05:03:21;;;;;;;0.00;0.00;;;13.90;84.80;;;;;;5001789;28;20155;-72
2023/08/29 05:05:47;;;;;;;0.00;0.00;;;13.90;84.90;;;;;;5002926;28;20053;-72
2023/08/29 05:08:19;;;;;;;0.00;0.00;;;13.80;85.40;;;;;;4989663;28;20062;-72
2023/08/29 05:10:46;;;;;;;0.00;0.00;;;13.80;86.10;;;;;;4990060;28;20158;-72
2023/08/29 05:13:11;;;;;;;0.00;0.00;;;13.70;86.10;;;;;;4991013;28;20559;-72
2023/08/29 05:15:37;;;;;;;0.00;0.00;;;13.80;86.10;;;;;;4995002;28;20564;-72
2023/08/29 05:18:03;;;;;;;0.00;0.00;;;13.80;86.00;;;;;;5008586;28;20073;-72
2023/08/29 05:20:28;;;;;;;0.00;0.00;;;13.80;85.90;;;;;;5007751;28;20068;-72
2023/08/29 05:22:54;;;;;;;0.00;0.00;;;13.90;85.90;;;;;;5007877;28;20338;-72
2023/08/29 05:25:21;;;;;;;0.00;0.00;;;13.90;85.90;;;;;;5005547;28;20046;-72
2023/08/29 05:27:47;;;;;;;0.00;0.00;;;14.00;85.90;;;;;;4988554;28;20046;-72
2023/08/29 05:30:13;;;;;;;0.00;0.00;;;14.10;86.00;;;;;;4998305;28;20081;-72
2023/08/29 05:32:40;;;;;;;0.00;0.00;;;14.10;86.00;;;;;;5004259;28;20093;-72
2023/08/29 05:35:07;;;;;;;0.00;0.00;;;14.10;86.00;;;;;;5005124;28;20053;-72
2023/08/29 05:37:33;;;;;;;0.00;0.00;;;14.10;87.60;;;;;;4997233;28;20125;-72
2023/08/29 05:39:59;;;;;;;0.00;0.00;;;14.10;87.50;;;;;;5002424;28;20570;-72
2023/08/29 05:42:25;;;;;;;0.00;0.00;;;14.10;87.60;;;;;;5006965;28;20045;-72
2023/08/29 05:44:51;;;;;;;0.00;0.00;;;14.10;87.80;;;;;;4990159;28;20053;-72
2023/08/29 05:47:16;;;;;;;0.00;0.00;;;14.20;87.80;;;;;;4999721;28;20281;-72
2023/08/29 05:49:42;;;;;;;0.00;0.00;;;14.20;87.70;;;;;;4989065;28;20165;-72
2023/08/29 05:52:08;;;;;;;0.00;0.00;;;14.20;88.00;;;;;;4996934;28;20609;-72
2023/08/29 05:54:37;;;;;;;0.00;0.00;;;14.20;88.30;;;;;;5009071;28;20073;-72
2023/08/29 05:57:08;;;;;;;0.00;0.00;;;14.30;88.30;;;;;;4993459;28;20043;-72
2023/08/29 05:59:33;;;;;;;0.00;0.00;;;14.40;88.40;;;;;;4990497;28;20081;-72
2023/08/29 06:01:59;;;;;;;0.00;0.00;;;14.50;88.30;;;;;;4994856;28;20034;-72
2023/08/29 06:04:29;;;;;;;0.00;0.00;;;14.50;88.10;;;;;;4997656;28;20615;-72
2023/08/29 06:06:55;;;;;;;0.00;0.00;;;14.60;87.90;;;;;;4994704;28;20046;-72
2023/08/29 06:09:22;;;;;;;0.00;0.00;;;14.70;87.80;;;;;;4992677;28;20054;-72
2023/08/29 06:11:48;;;;;;;0.00;0.00;;;14.80;87.90;;;;;;5009488;28;20510;-72
2023/08/29 06:14:13;;;;;;;0.05;0.05;;;14.90;87.70;;;;;;5006808;28;20069;-71
2023/08/29 06:16:39;;;;;;;0.00;0.00;;;14.90;87.60;;;;;;5040740;23;20049;-70
2023/08/29 06:19:05;;;;;;;0.00;0.00;;;15.00;87.40;;;;;;5019237;28;20124;-72
2023/08/29 06:21:31;;;;;;;0.00;0.00;;;15.00;87.30;;;;;;5019277;28;20065;-72
2023/08/29 06:23:56;;;;;;;0.00;0.00;;;15.10;87.20;;;;;;5020066;28;20064;-71
2023/08/29 06:26:23;;;;;;;0.00;0.00;;;15.20;87.10;;;;;;5012842;28;20045;-71
2023/08/29 06:28:49;;;;;;;0.00;0.00;;;15.30;87.20;;;;;;5055605;23;20053;-72
2023/08/29 06:31:15;;;;;;;0.00;0.00;;;15.30;87.10;;;;;;5003285;28;20156;-71
2023/08/29 06:33:41;;;;;;;0.00;0.00;;;15.30;87.20;;;;;;4995208;28;20129;-71
2023/08/29 06:36:12;;;;;;;0.00;0.00;;;15.40;87.10;;;;;;5000944;28;20203;-71
2023/08/29 06:38:39;;;;;;;0.00;0.00;;;15.40;87.00;;;;;;4995793;28;20577;-72
2023/08/29 06:41:05;;;;;;;0.00;0.00;;;15.50;86.90;;;;;;5006904;28;20065;-71
2023/08/29 06:43:31;;;;;;;0.00;0.00;;;15.50;86.90;;;;;;4997614;28;20054;-72
2023/08/29 06:45:57;;;;;;;0.00;0.00;;;15.60;86.90;;;;;;4995889;28;20061;-71
2023/08/29 06:48:24;;;;;;;0.00;0.00;;;15.60;86.80;;;;;;4981070;28;20058;-71
2023/08/29 06:53:17;;;;;;;0.08;0.08;;;15.80;86.70;;;;;;5071652;22;20192;-70
2023/08/29 06:56:11;;;;;;;0.00;0.00;;;15.90;86.60;;;;;;5015800;28;20132;-70
2023/08/29 06:58:38;;;;;;;0.00;0.00;;;15.90;86.50;;;;;;5016064;28;20081;-70
2023/08/29 07:01:04;;;;;;;0.00;0.00;;;16.00;86.50;;;;;;5002574;28;20479;-70
2023/08/29 07:03:29;;;;;;;0.00;0.00;;;16.00;86.10;;;;;;4998893;28;20087;-70
2023/08/29 07:05:55;;;;;;;0.00;0.00;;;16.10;86.00;;;;;;5027649;28;20041;-70
2023/08/29 07:08:21;;;;;;;0.00;0.00;;;16.10;86.00;;;;;;4986942;28;20609;-70
2023/08/29 07:10:49;;;;;;;0.00;0.00;;;16.20;86.00;;;;;;5002585;28;20045;-70
2023/08/29 07:13:29;;;;;;;0.05;0.05;;;16.30;85.90;;;;;;5015071;28;20476;-70
2023/08/29 07:16:40;;;;;;;0.00;0.00;;;16.40;85.90;;;;;;5002832;28;20046;-70
2023/08/29 07:19:28;;;;;;;0.00;0.00;;;16.50;85.60;;;;;;4946872;28;20067;-69
2023/08/29 07:25:58;;;;;;;0.00;0.00;;;16.50;85.40;;;;;;4890372;29;20144;-70
2023/08/29 07:28:26;;;;;;;0.00;0.00;;;16.60;85.30;;;;;;4937062;28;20063;-70
2023/08/29 07:31:12;;;;;;;0.00;0.00;;;16.60;85.50;;;;;;5006225;28;20228;-71
2023/08/29 07:33:38;;;;;;;0.00;0.00;;;16.60;85.40;;;;;;4993604;28;20061;-69
2023/08/29 07:36:05;;;;;;;0.00;0.00;;;16.60;85.40;;;;;;5011166;28;20053;-69
2023/08/29 07:38:31;;;;;;;0.00;0.00;;;16.60;85.40;;;;;;4996455;28;20049;-68
2023/08/29 07:40:58;;;;;;;0.00;0.00;;;16.70;85.40;;;;;;4995892;28;20046;-70
2023/08/29 07:43:27;;;;;;;0.00;0.00;;;16.70;85.20;;;;;;4995168;28;20054;-69
2023/08/29 07:46:08;;;;;;;0.00;0.00;;;16.70;85.20;;;;;;5028672;28;20046;-69
2023/08/29 07:48:36;;;;;;;0.00;0.00;;;16.80;85.30;;;;;;4993105;28;20056;-70
2023/08/29 07:51:07;;;;;;;0.00;0.00;;;16.80;85.10;;;;;;4991390;28;20062;-70
2023/08/29 07:53:34;;;;;;;0.00;0.00;;;16.80;85.10;;;;;;4986938;28;20427;-70
2023/08/29 07:58:25;;;;;;;0.00;0.00;;;16.90;85.20;;;;;;5028643;22;20629;-70
2023/08/29 08:00:51;;;;;;;0.00;0.00;;;17.00;85.10;;;;;;5002691;28;20053;-70
2023/08/29 08:03:17;;;;;;;0.00;0.00;;;17.00;85.00;;;;;;5011464;28;20525;-69
2023/08/29 08:05:44;;;;;;;0.00;0.00;;;17.00;84.80;;;;;;5008916;28;20045;-70
2023/08/29 08:08:10;;;;;;;0.00;0.00;;;17.00;84.60;;;;;;5002233;28;20093;-69
2023/08/29 08:10:38;;;;;;;0.00;0.00;;;17.10;84.60;;;;;;5018808;28;20393;-69
2023/08/29 08:13:07;;;;;;;0.00;0.00;;;17.10;84.70;;;;;;5006464;28;20061;-70
2023/08/29 08:15:33;;;;;;;0.00;0.00;;;17.10;84.70;;;;;;5015728;28;20128;-69
2023/08/29 08:17:58;;;;;;;0.00;0.00;;;17.20;84.60;;;;;;5016168;28;20125;-70
2023/08/29 08:20:51;;;;;;;0.00;0.00;;;17.30;84.40;;;;;;5022543;28;20057;-69
2023/08/29 08:23:22;;;;;;;;;;;17.40;84.10;;;;;;5022632;28;20187;-70
2023/08/29 08:25:51;;;;;;;0.00;0.00;;;17.40;84.00;;;;;;5006649;28;19921;-69
2023/08/29 08:28:16;;;;;;;0.00;0.00;;;17.50;83.90;;;;;;4999942;28;20073;-70
2023/08/29 08:30:48;;;;;;;0.00;0.00;;;17.50;83.90;;;;;;4997643;28;20088;-71
2023/08/29 08:33:14;;;;;;;0.32;0.32;;;17.60;83.30;;;;;;4978966;28;20100;-70
2023/08/29 08:35:49;;;;;;;0.00;0.00;;;17.70;83.10;;;;;;5001844;28;20124;-70
2023/08/29 08:38:22;;;;;;;0.00;0.00;;;17.80;83.20;;;;;;5002549;28;20514;-70
2023/08/29 08:40:56;;;;;;;0.00;0.00;;;17.90;82.60;;;;;;4977765;28;20105;-70
2023/08/29 08:43:23;;;;;;;0.00;0.00;;;17.90;82.40;;;;;;4972400;28;20084;-69
2023/08/29 08:45:51;;;;;;;0.00;0.00;;;17.90;81.70;;;;;;4990380;28;20046;-70
2023/08/29 08:48:16;;;;;;;0.00;0.00;;;17.90;80.00;;;;;;4987590;28;20709;-70
2023/08/29 08:50:44;;;;;;;0.00;0.00;;;17.90;80.40;;;;;;5009410;28;20049;-70
2023/08/29 08:53:13;;;;;;;0.00;0.00;;;18.00;80.40;;;;;;5001946;28;20447;-69
2023/08/29 08:55:40;;;;;;;0.00;0.00;;;18.10;80.50;;;;;;5007931;28;20042;-68
2023/08/29 08:58:06;;;;;;;0.00;0.00;;;18.10;80.30;;;;;;4991674;28;20068;-68
2023/08/29 09:00:33;;;;;;;0.00;0.00;;;18.20;80.20;;;;;;4986433;28;20050;-68
2023/08/29 09:02:58;;;;;;;0.00;0.00;;;18.20;79.90;;;;;;4990033;28;20491;-66
2023/08/29 09:05:24;;;;;;;0.00;0.00;;;18.20;78.80;;;;;;4990302;28;20049;-69
2023/08/29 09:07:50;;;;;;;0.00;0.00;;;18.20;78.70;;;;;;4990378;28;20133;-69
2023/08/29 09:10:32;;;;;;;0.00;0.00;;;18.20;79.00;;;;;;4973164;28;20054;-69
2023/08/29 09:12:58;;;;;;;0.00;0.00;;;18.30;78.50;;;;;;4990207;28;20503;-69
2023/08/29 09:15:25;;;;;;;0.00;0.00;;;18.30;78.50;;;;;;4972087;28;20099;-68
2023/08/29 09:17:53;;;;;;;0.00;0.00;;;18.20;77.40;;;;;;4994446;28;20034;-67
2023/08/29 09:20:20;;;;;;;0.00;0.00;;;18.30;78.10;;;;;;4987933;28;20145;-67
2023/08/29 09:22:55;;;;;;;0.00;0.00;;;18.30;78.30;;;;;;4995829;28;20117;-69
2023/08/29 09:25:32;;;;;;;0.00;0.00;;;18.40;78.40;;;;;;5009197;28;20133;-69
2023/08/29 09:27:58;;;;;;;0.00;0.00;;;18.40;78.20;;;;;;5005035;28;20458;-68
2023/08/29 09:30:24;;;;;;;0.00;0.00;;;18.40;78.40;;;;;;4976175;28;20061;-67
2023/08/29 09:32:51;;;;;;;0.00;0.00;;;18.40;78.30;;;;;;5000319;28;20080;-71
2023/08/29 09:35:25;;;;;;;0.00;0.00;;;18.50;78.50;;;;;;5008820;28;20690;-68
2023/08/29 09:37:54;;;;;;;0.00;0.00;;;18.50;77.30;;;;;;5008069;28;20557;-69
2023/08/29 09:40:21;;;;;;;0.05;0.05;;;18.60;78.20;;;;;;5008756;28;20057;-68
2023/08/29 09:42:59;;;;;;;0.00;0.00;;;18.60;77.40;;;;;;4998035;28;20551;-67
2023/08/29 09:45:29;;;;;;;0.00;0.00;;;18.60;77.30;;;;;;4998953;28;20151;-67
2023/08/29 09:48:02;;;;;;;0.00;0.00;;;18.70;77.60;;;;;;5009194;28;20197;-67
2023/08/29 09:50:34;;;;;;;0.00;0.00;;;18.70;77.00;;;;;;5008801;28;20099;-68
2023/08/29 09:53:01;;;;;;;0.00;0.00;;;18.80;76.70;;;;;;5008393;28;20111;-67
2023/08/29 09:55:34;;;;;;;0.00;0.00;;;18.80;77.10;;;;;;5009066;28;20066;-67
2023/08/29 09:58:04;;;;;;;0.00;0.00;;;18.80;76.50;;;;;;5007621;28;20069;-66
2023/08/29 10:01:09;;;;;;;0.00;0.00;;;18.90;76.90;;;;;;5003294;28;20050;-66
2023/08/29 10:03:42;;;;;;;0.00;0.00;;;19.10;76.90;;;;;;4991656;28;20038;-67
2023/08/29 10:06:21;;;;;;;0.00;0.00;;;19.30;76.20;;;;;;4991691;28;20046;-70
2023/08/29 10:09:28;;;;;;;0.00;0.00;;;19.40;75.70;;;;;;4984925;28;20053;-70
2023/08/29 10:12:19;;;;;;;0.00;0.00;;;19.50;75.00;;;;;;4987527;28;20049;-69
2023/08/29 10:14:50;;;;;;;0.00;0.00;;;19.50;75.00;;;;;;4988159;28;20042;-70
2023/08/29 10:17:18;;;;;;;0.00;0.00;;;19.50;74.60;;;;;;4991394;28;20053;-70
2023/08/29 10:19:54;;;;;;;0.00;0.00;;;19.50;74.30;;;;;;4991173;28;20049;-68
2023/08/29 10:22:21;;;;;;;0.00;0.00;;;19.50;74.30;;;;;;4988771;28;20494;-69
2023/08/29 10:24:52;;;;;;;0.00;0.00;;;19.50;73.10;;;;;;4987663;28;20057;-69
2023/08/29 10:27:17;;;;;;;0.00;0.00;;;19.60;74.10;;;;;;5003109;28;20654;-69
2023/08/29 10:29:43;;;;;;;0.00;0.00;;;19.50;71.80;;;;;;5005484;28;20045;-69
2023/08/29 10:32:09;;;;;;;0.00;0.00;;;19.50;72.70;;;;;;4972953;28;20466;-70
2023/08/29 10:34:38;;;;;;;0.00;0.00;;;19.40;71.10;;;;;;4988619;28;20060;-70
2023/08/29 10:37:03;;;;;;;0.00;0.00;;;19.40;72.70;;;;;;4987563;28;20057;-69
2023/08/29 10:39:30;;;;;;;0.00;0.00;;;19.50;73.30;;;;;;4989478;28;20042;-68
2023/08/29 10:42:08;;;;;;;0.00;0.00;;;19.50;73.40;;;;;;4971522;28;20080;-68
2023/08/29 10:44:56;;;;;;;0.00;0.00;;;19.50;73.00;;;;;;4954865;28;20097;-69
2023/08/29 10:47:27;;;;;;;0.00;0.00;;;19.40;70.60;;;;;;4974390;28;20418;-69
2023/08/29 10:50:23;;;;;;;0.00;0.00;;;19.40;70.60;;;;;;4988807;28;20499;-69
2023/08/29 10:52:59;;;;;;;0.05;0.05;;;19.40;70.60;;;;;;4972899;28;20065;-69
2023/08/29 10:55:30;;;;;;;0.00;0.00;;;19.40;67.50;;;;;;4985326;28;20046;-70
2023/08/29 11:01:43;;;;;;;0.20;0.20;;;19.60;71.40;;;;;;4979696;28;20502;-70
2023/08/29 11:04:22;;;;;;;0.00;0.00;;;19.70;70.80;;;;;;4980134;28;20487;-69
2023/08/29 11:07:06;;;;;;;0.00;0.00;;;19.70;69.50;;;;;;4996856;28;20138;-69
2023/08/29 11:09:33;;;;;;;0.00;0.00;;;19.70;68.90;;;;;;4985607;28;20050;-69
2023/08/29 11:12:34;;;;;;;0.00;0.00;;;19.70;69.30;;;;;;4976200;28;20574;-71
2023/08/29 11:15:18;;;;;;;0.00;0.00;;;19.80;69.60;;;;;;4958615;28;20112;-68
2023/08/29 11:18:26;;;;;;;0.00;0.00;;;19.80;69.80;;;;;;4978484;28;20488;-70
2023/08/29 11:21:30;;;;;;;0.00;0.00;;;20.00;70.10;;;;;;4984359;28;20090;-70
2023/08/29 11:24:36;;;;;;;0.00;0.00;;;20.10;69.40;;;;;;4960565;28;20081;-70
2023/08/29 11:27:04;;;;;;;0.00;0.00;;;20.10;67.50;;;;;;4916497;29;20052;-70
2023/08/29 11:30:17;;;;;;;0.00;0.00;;;20.20;68.00;;;;;;4932360;29;20114;-70
2023/08/29 11:33:19;;;;;;;0.00;0.00;;;20.20;65.50;;;;;;4986533;28;20614;-70
2023/08/29 11:35:55;;;;;;;0.00;0.00;;;20.30;67.20;;;;;;4980437;28;20066;-70
2023/08/29 11:38:29;;;;;;;0.00;0.00;;;20.50;68.00;;;;;;4978939;28;20042;-69
2023/08/29 11:40:59;;;;;;;0.00;0.00;;;20.60;66.50;;;;;;4971620;28;20070;-70
2023/08/29 11:47:03;;;;;;;0.00;0.00;;;20.90;68.40;;;;;;4990603;28;20040;-70
2023/08/29 11:49:41;;;;;;;0.00;0.00;;;21.00;68.10;;;;;;4971268;28;20487;-70
2023/08/29 11:52:10;;;;;;;0.00;0.00;;;21.00;66.90;;;;;;4966524;28;20068;-70
2023/08/29 11:55:12;;;;;;;0.00;0.00;;;21.10;67.20;;;;;;4975694;28;20065;-70
2023/08/29 11:58:56;;;;;;;0.00;0.00;;;21.30;68.40;;;;;;4921984;28;1227391;-70
2023/08/29 12:02:00;;;;;;;0.00;0.00;;;21.30;68.40;;;;;;4972719;28;20514;-70
2023/08/29 12:04:42;;;;;;;0.00;0.00;;;21.20;65.70;;;;;;4933299;28;20055;-69
2023/08/29 12:08:01;;;;;;;0.00;0.00;;;21.30;65.30;;;;;;4919418;29;20043;-71
2023/08/29 12:10:29;;;;;;;0.00;0.00;;;21.30;65.20;;;;;;4861448;29;20475;-71
2023/08/29 12:13:21;;;;;;;0.10;0.10;;;21.30;64.60;;;;;;4854226;29;20715;-70
2023/08/29 12:15:52;;;;;;;0.00;0.00;;;21.30;63.90;;;;;;4834343;29;20090;-70
2023/08/29 12:18:22;;;;;;;0.00;0.00;;;21.30;63.80;;;;;;4863209;29;20041;-71
2023/08/29 12:20:48;;;;;;;0.00;0.00;;;21.30;65.00;;;;;;4852611;29;20063;-71
2023/08/29 12:23:32;;;;;;;0.10;0.10;;;21.30;63.10;;;;;;4868601;29;20177;-71
2023/08/29 12:26:01;;;;;;;0.00;0.00;;;21.30;65.30;;;;;;4872716;29;20044;-71
2023/08/29 12:29:00;;;;;;;0.00;0.00;;;21.30;62.90;;;;;;4877493;29;20052;-71
2023/08/29 12:31:33;;;;;;;0.00;0.00;;;21.30;63.80;;;;;;4865101;29;20073;-67
2023/08/29 12:34:14;;;;;;;0.00;0.00;;;21.40;63.00;;;;;;4863677;29;20154;-71
2023/08/29 12:36:43;;;;;;;0.00;0.00;;;21.50;64.30;;;;;;4860173;29;20073;-70
2023/08/29 12:39:12;;;;;;;0.00;0.00;;;21.50;65.20;;;;;;4866742;29;20037;-68
2023/08/29 12:41:48;;;;;;;0.00;0.00;;;21.40;63.70;;;;;;4954392;28;20055;-70
2023/08/29 12:44:14;;;;;;;0.00;0.00;;;21.30;63.80;;;;;;4986295;28;20085;-71
2023/08/29 12:46:45;;;;;;;0.00;0.00;;;21.40;65.10;;;;;;4988803;28;20089;-69
2023/08/29 12:49:41;;;;;;;0.00;0.00;;;21.30;64.10;;;;;;4988097;28;20050;-70
2023/08/29 12:52:06;;;;;;;0.00;0.00;;;21.30;64.80;;;;;;4987792;28;20046;-70
2023/08/29 12:55:02;;;;;;;0.00;0.00;;;21.20;62.20;;;;;;4987754;28;20519;-70
2023/08/29 12:58:05;;;;;;;0.17;0.17;;;21.30;63.60;;;;;;4997377;28;20058;-70
2023/08/29 13:00:45;;;;;;;0.00;0.00;;;21.40;63.20;;;;;;5002980;28;20065;-68
2023/08/29 13:03:11;;;;;;;0.00;0.00;;;21.50;61.10;;;;;;4996319;28;20069;-72
2023/08/29 13:05:43;;;;;;;0.00;0.00;;;21.50;61.70;;;;;;4971155;28;20479;-66
2023/08/29 13:08:40;;;;;;;0.00;0.00;;;21.50;62.40;;;;;;5006373;28;20046;-71
2023/08/29 13:11:15;;;;;;;0.00;0.00;;;21.50;63.50;;;;;;4958921;28;20050;-71
2023/08/29 13:14:05;;;;;;;0.00;0.00;;;21.50;62.60;;;;;;4971114;28;20527;-71
2023/08/29 13:16:43;;;;;;;0.00;0.00;;;21.50;64.80;;;;;;4988588;28;20051;-71
2023/08/29 13:20:03;;;;;;;0.00;0.00;;;21.60;64.80;;;;;;4987055;28;20069;-71
2023/08/29 13:22:29;;;;;;;0.00;0.00;;;21.60;65.60;;;;;;4931699;28;20570;-70
2023/08/29 13:24:55;;;;;;;0.00;0.00;;;21.40;64.00;;;;;;4988329;28;20070;-71